Time;durP1;ratioP1;P1;durP2;ratioP2;P2;SDS_P1;SDS_P2;PMS_P1;PMS_P2;Temp;Humidity;BMP_temperature;BMP_pressure;BME280_temperature;BME280_humidity;BME280_pressure;Samples;Min_cycle;Max_cycle;Signal;HPM_P1;HPM_P2
2022/07/16 00:02:43;;;;;;;1.65;0.90;;;12.00;96.20;;;;;;5061961;28;20032;-87
2022/07/16 00:05:09;;;;;;;2.38;1.02;;;12.00;96.70;;;;;;5043185;28;20487;-87
2022/07/16 00:07:35;;;;;;;2.70;1.50;;;12.00;97.70;;;;;;5043485;28;20457;-86
2022/07/16 00:10:00;;;;;;;1.83;1.00;;;12.00;98.00;;;;;;5025437;28;20025;-87
2022/07/16 00:12:26;;;;;;;1.90;0.88;;;12.00;98.00;;;;;;5041907;28;20064;-88
2022/07/16 00:14:52;;;;;;;3.38;0.80;;;12.00;97.60;;;;;;5042966;28;20135;-86
2022/07/16 00:17:19;;;;;;;1.55;0.90;;;11.90;97.10;;;;;;5042023;28;20036;-87
2022/07/16 00:19:44;;;;;;;2.80;1.10;;;11.90;97.20;;;;;;5050010;28;20033;-87
2022/07/16 00:22:10;;;;;;;3.78;1.48;;;11.90;97.50;;;;;;5067872;28;20037;-86
2022/07/16 00:24:37;;;;;;;2.33;0.88;;;11.80;98.00;;;;;;5047728;28;20097;-87
2022/07/16 00:27:03;;;;;;;2.45;1.00;;;11.80;98.00;;;;;;5060159;28;20437;-84
2022/07/16 00:29:29;;;;;;;1.20;0.90;;;11.70;97.70;;;;;;5077357;28;20021;-88
2022/07/16 00:31:55;;;;;;;2.05;1.48;;;11.70;97.70;;;;;;5042150;28;20036;-87
2022/07/16 00:34:22;;;;;;;2.10;0.93;;;11.70;97.80;;;;;;5006598;28;20455;-87
2022/07/16 00:36:48;;;;;;;2.05;1.17;;;11.60;99.00;;;;;;5066310;28;20032;-87
2022/07/16 00:39:15;;;;;;;1.60;1.15;;;11.70;99.90;;;;;;5040241;28;20483;-87
2022/07/16 00:41:43;;;;;;;2.17;1.20;;;11.70;99.90;;;;;;5041648;28;20095;-87
2022/07/16 00:44:11;;;;;;;2.92;1.40;;;11.60;99.90;;;;;;5058276;28;20511;-88
2022/07/16 00:46:38;;;;;;;1.95;1.30;;;11.60;99.90;;;;;;5042105;28;20075;-88
2022/07/16 00:49:05;;;;;;;1.20;1.10;;;11.60;99.90;;;;;;5056210;28;20056;-87
2022/07/16 00:51:32;;;;;;;2.88;1.80;;;11.60;99.90;;;;;;5042005;28;20054;-88
2022/07/16 00:53:58;;;;;;;2.80;1.35;;;11.60;99.90;;;;;;5058439;28;20033;-87
2022/07/16 00:56:24;;;;;;;2.60;1.38;;;11.60;99.90;;;;;;5057487;28;20036;-88
2022/07/16 00:58:51;;;;;;;1.60;1.20;;;11.60;99.90;;;;;;5021552;28;20028;-89
2022/07/16 01:01:18;;;;;;;2.08;1.55;;;11.50;99.90;;;;;;5027839;28;20505;-86
2022/07/16 01:03:44;;;;;;;2.28;1.20;;;11.50;99.90;;;;;;5040523;28;20043;-88
2022/07/16 01:06:12;;;;;;;1.67;1.38;;;11.50;99.90;;;;;;5040856;28;20038;-88
2022/07/16 01:08:41;;;;;;;1.75;1.63;;;11.50;99.90;;;;;;5053830;28;20094;-89
2022/07/16 01:11:08;;;;;;;5.55;1.58;;;11.50;99.90;;;;;;5062357;28;20024;-88
2022/07/16 01:13:35;;;;;;;1.27;1.17;;;11.50;99.90;;;;;;5057543;28;20036;-88
2022/07/16 01:16:01;;;;;;;3.85;1.38;;;11.50;99.90;;;;;;5040993;28;20041;-88
2022/07/16 01:18:28;;;;;;;4.43;1.60;;;11.40;99.90;;;;;;5005371;28;20033;-86
2022/07/16 01:20:53;;;;;;;1.75;1.15;;;11.40;99.90;;;;;;5037992;28;20040;-87
2022/07/16 01:23:23;;;;;;;1.65;1.40;;;11.30;99.90;;;;;;5017191;28;20427;-88
2022/07/16 01:25:50;;;;;;;3.45;1.38;;;11.20;99.90;;;;;;5042981;28;20056;-88
2022/07/16 01:28:16;;;;;;;2.33;1.27;;;11.20;99.90;;;;;;5040435;28;20024;-88
2022/07/16 01:30:43;;;;;;;2.45;1.30;;;11.10;99.90;;;;;;5070521;28;20016;-89
2022/07/16 01:33:27;;;;;;;2.25;1.40;;;11.00;99.90;;;;;;5060017;28;20067;-86
2022/07/16 01:35:56;;;;;;;2.20;1.38;;;10.90;99.90;;;;;;5063543;28;20032;-88
2022/07/16 01:38:22;;;;;;;3.33;1.25;;;10.90;99.90;;;;;;5037831;28;20531;-86
2022/07/16 01:40:48;;;;;;;3.00;1.30;;;10.90;99.90;;;;;;5023618;28;20098;-88
2022/07/16 01:43:19;;;;;;;1.63;1.35;;;10.90;99.90;;;;;;5058331;28;20402;-88
2022/07/16 01:45:46;;;;;;;3.42;1.38;;;10.80;99.90;;;;;;5044959;28;20449;-87
2022/07/16 01:48:13;;;;;;;2.65;1.80;;;10.80;99.90;;;;;;5037640;28;20468;-88
2022/07/16 01:50:42;;;;;;;2.28;1.27;;;10.80;99.90;;;;;;5053835;28;20025;-89
2022/07/16 01:53:09;;;;;;;3.25;1.15;;;10.90;99.90;;;;;;5030288;28;20039;-89
2022/07/16 01:55:35;;;;;;;2.25;1.38;;;10.80;99.90;;;;;;5057367;28;20100;-89
2022/07/16 01:58:02;;;;;;;1.85;1.30;;;10.90;99.90;;;;;;5025036;28;20380;-89
2022/07/16 02:00:28;;;;;;;1.88;1.23;;;10.90;99.90;;;;;;5039951;28;20037;-87
2022/07/16 02:02:54;;;;;;;2.42;1.20;;;10.90;99.90;;;;;;5024030;28;20051;-87
2022/07/16 02:05:19;;;;;;;1.30;1.20;;;10.90;99.90;;;;;;5022498;28;20043;-88
2022/07/16 02:07:45;;;;;;;1.75;1.33;;;10.90;99.90;;;;;;5021490;28;20040;-88
2022/07/16 02:10:11;;;;;;;2.08;1.30;;;10.80;99.90;;;;;;5034444;28;20608;-86
2022/07/16 02:12:37;;;;;;;3.58;1.50;;;10.80;99.90;;;;;;5057641;28;20470;-86
2022/07/16 02:15:05;;;;;;;2.92;1.20;;;10.80;99.90;;;;;;5040977;28;20045;-87
2022/07/16 02:17:30;;;;;;;5.13;1.67;;;10.70;99.90;;;;;;5008023;28;20060;-86
2022/07/16 02:19:56;;;;;;;1.40;1.30;;;10.70;99.90;;;;;;5040552;28;20040;-87
2022/07/16 02:22:22;;;;;;;4.80;1.45;;;10.70;99.90;;;;;;5018624;28;20147;-87
2022/07/16 02:24:48;;;;;;;3.42;1.40;;;10.70;99.90;;;;;;5037120;28;20059;-86
2022/07/16 02:27:13;;;;;;;1.35;1.20;;;10.70;99.90;;;;;;5040049;28;20025;-87
2022/07/16 02:29:39;;;;;;;2.42;1.65;;;10.70;99.90;;;;;;5039332;28;20081;-87
2022/07/16 02:32:05;;;;;;;3.00;1.48;;;10.60;99.90;;;;;;5070013;28;20676;-87
2022/07/16 02:34:31;;;;;;;3.53;1.40;;;10.60;99.90;;;;;;5055183;28;20041;-86
2022/07/16 02:36:56;;;;;;;3.00;1.67;;;10.50;99.90;;;;;;5042042;28;20056;-89
2022/07/16 02:39:22;;;;;;;2.15;1.13;;;10.50;99.90;;;;;;5019882;28;20096;-87
2022/07/16 02:41:48;;;;;;;1.20;1.10;;;10.50;99.90;;;;;;5033768;28;20052;-86
2022/07/16 02:44:14;;;;;;;4.88;1.50;;;10.50;99.90;;;;;;5040033;28;20402;-86
2022/07/16 02:46:40;;;;;;;2.50;1.50;;;10.40;99.90;;;;;;5054279;28;20056;-88
2022/07/16 02:49:05;;;;;;;1.67;1.25;;;10.40;99.90;;;;;;5052005;28;20021;-88
2022/07/16 02:51:31;;;;;;;2.17;1.08;;;10.40;99.90;;;;;;5031154;28;20077;-87
2022/07/16 02:53:57;;;;;;;1.25;1.15;;;10.30;99.90;;;;;;5058490;28;20051;-89
2022/07/16 02:56:23;;;;;;;3.63;1.40;;;10.30;99.90;;;;;;5023621;28;20037;-87
2022/07/16 02:58:48;;;;;;;2.42;1.08;;;10.30;99.90;;;;;;5023274;28;20028;-87
2022/07/16 03:01:14;;;;;;;4.50;1.38;;;10.20;99.90;;;;;;5039562;28;20494;-89
2022/07/16 03:03:40;;;;;;;1.35;1.20;;;10.20;99.90;;;;;;5023680;28;20161;-86
2022/07/16 03:06:06;;;;;;;1.98;1.15;;;10.20;99.90;;;;;;5039363;28;20041;-86
2022/07/16 03:08:32;;;;;;;2.63;1.30;;;10.20;99.90;;;;;;5022403;28;20059;-88
2022/07/16 03:10:57;;;;;;;3.20;1.20;;;10.10;99.90;;;;;;5043142;28;20040;-88
2022/07/16 03:13:23;;;;;;;1.13;0.98;;;10.10;99.90;;;;;;5051800;28;20072;-88
2022/07/16 03:15:49;;;;;;;1.67;1.15;;;10.10;99.90;;;;;;5036041;28;20132;-87
2022/07/16 03:18:15;;;;;;;2.65;1.33;;;10.00;99.90;;;;;;5037194;28;20039;-86
2022/07/16 03:20:41;;;;;;;6.35;1.40;;;10.00;99.90;;;;;;5055029;28;20093;-89
2022/07/16 03:23:07;;;;;;;2.42;1.30;;;10.00;99.90;;;;;;5039506;28;20048;-88
2022/07/16 03:25:32;;;;;;;3.38;1.40;;;9.90;99.90;;;;;;5023123;28;20037;-86
2022/07/16 03:27:58;;;;;;;1.90;1.33;;;9.90;99.90;;;;;;5023438;28;20036;-84
2022/07/16 03:30:24;;;;;;;2.90;1.30;;;9.90;99.90;;;;;;5021906;28;20039;-88
2022/07/16 03:32:50;;;;;;;1.85;1.23;;;9.90;99.90;;;;;;5063087;28;20047;-85
2022/07/16 03:35:16;;;;;;;1.73;1.15;;;9.80;99.90;;;;;;5043584;28;20044;-87
2022/07/16 03:40:27;;;;;;;5.97;1.42;;;9.80;99.90;;;;;;5055787;28;20036;-89
2022/07/16 03:42:53;;;;;;;2.22;1.23;;;9.80;99.90;;;;;;5039895;28;20060;-87
2022/07/16 03:45:19;;;;;;;2.22;1.58;;;9.80;99.90;;;;;;5021566;28;20442;-88
2022/07/16 03:47:45;;;;;;;1.88;1.40;;;9.80;99.90;;;;;;5035482;28;20463;-88
2022/07/16 03:50:11;;;;;;;1.85;1.50;;;9.70;99.90;;;;;;5051798;28;20425;-85
2022/07/16 03:52:36;;;;;;;2.38;1.45;;;9.70;99.90;;;;;;5025316;28;20035;-87
2022/07/16 03:55:02;;;;;;;2.63;1.05;;;9.70;99.90;;;;;;5055785;28;20024;-87
2022/07/16 03:57:35;;;;;;;2.50;1.48;;;9.70;99.90;;;;;;5038249;28;20033;-89
2022/07/16 04:00:06;;;;;;;3.88;1.20;;;9.70;99.90;;;;;;5046990;28;20927;-85
2022/07/16 04:02:39;;;;;;;1.63;1.40;;;9.70;99.90;;;;;;5066986;28;20032;-85
2022/07/16 04:05:18;;;;;;;1.83;1.60;;;9.70;99.90;;;;;;5062582;28;20624;-88
2022/07/16 04:07:50;;;;;;;2.20;1.45;;;9.70;99.90;;;;;;5059124;28;20082;-86
2022/07/16 04:10:25;;;;;;;1.67;1.30;;;9.80;99.90;;;;;;5064848;28;20027;-88
2022/07/16 04:12:51;;;;;;;4.55;1.65;;;9.80;99.90;;;;;;5076295;28;20048;-86
2022/07/16 04:15:32;;;;;;;3.55;1.52;;;9.80;99.90;;;;;;5047130;28;20037;-87
2022/07/16 04:18:13;;;;;;;2.28;1.33;;;9.90;99.90;;;;;;5066954;28;20108;-88
2022/07/16 04:20:45;;;;;;;2.75;1.27;;;9.90;99.90;;;;;;5057762;28;20033;-86
2022/07/16 04:23:12;;;;;;;2.42;1.40;;;9.90;99.90;;;;;;5067767;28;20039;-87
2022/07/16 04:25:38;;;;;;;2.72;1.50;;;9.90;99.90;;;;;;5042746;28;20060;-88
2022/07/16 04:28:04;;;;;;;1.80;1.40;;;9.90;99.90;;;;;;5036318;28;20061;-85
2022/07/16 04:30:30;;;;;;;2.83;1.40;;;10.00;99.90;;;;;;5042868;28;20557;-86
2022/07/16 04:32:55;;;;;;;1.63;1.20;;;10.00;99.90;;;;;;5042905;28;20032;-87
2022/07/16 04:35:21;;;;;;;1.50;1.40;;;10.10;99.90;;;;;;5042506;28;20059;-87
2022/07/16 04:37:47;;;;;;;2.75;1.67;;;10.10;99.90;;;;;;5039555;28;20041;-82
2022/07/16 04:40:13;;;;;;;2.90;1.13;;;10.10;99.90;;;;;;5039085;28;20091;-85
2022/07/16 04:42:40;;;;;;;1.85;1.30;;;10.20;99.90;;;;;;5025884;28;20107;-87
2022/07/16 04:45:07;;;;;;;2.00;1.55;;;10.20;99.90;;;;;;5025894;28;20402;-87
2022/07/16 04:47:34;;;;;;;2.65;1.52;;;10.30;99.90;;;;;;5025656;28;20084;-86
2022/07/16 04:49:59;;;;;;;2.22;1.65;;;10.40;99.90;;;;;;5042176;28;20029;-86
2022/07/16 04:52:25;;;;;;;4.38;1.90;;;10.40;99.90;;;;;;5058616;28;20024;-87
2022/07/16 04:54:51;;;;;;;1.50;1.40;;;10.50;99.90;;;;;;5040474;28;20080;-89
2022/07/16 04:57:17;;;;;;;2.63;1.70;;;10.60;99.90;;;;;;5035843;28;20378;-87
2022/07/16 04:59:43;;;;;;;2.05;1.70;;;10.60;99.90;;;;;;5038947;28;20060;-87
2022/07/16 05:04:53;;;;;;;1.83;1.63;;;10.80;99.90;;;;;;5044261;28;20090;-87
2022/07/16 05:07:19;;;;;;;4.13;2.60;;;10.90;99.90;;;;;;5025252;28;20033;-88
2022/07/16 05:09:45;;;;;;;4.38;2.53;;;11.00;99.90;;;;;;5054425;28;20468;-86
2022/07/16 05:12:10;;;;;;;3.20;2.40;;;11.00;99.90;;;;;;5053291;28;20079;-88
2022/07/16 05:14:36;;;;;;;3.13;2.20;;;11.20;99.90;;;;;;5042097;28;20422;-86
2022/07/16 05:17:02;;;;;;;2.25;1.75;;;11.20;99.90;;;;;;5042338;28;20075;-89
2022/07/16 05:19:28;;;;;;;2.38;1.63;;;11.30;99.90;;;;;;5024494;28;20040;-88
2022/07/16 05:21:53;;;;;;;2.55;1.70;;;11.40;99.90;;;;;;5055764;28;20040;-85
2022/07/16 05:24:19;;;;;;;2.58;1.50;;;11.60;99.90;;;;;;5050493;28;20104;-85
2022/07/16 05:26:45;;;;;;;3.92;1.77;;;11.70;99.90;;;;;;5032800;28;20029;-86
2022/07/16 05:29:11;;;;;;;2.03;1.65;;;11.80;99.90;;;;;;5036137;28;20078;-87
2022/07/16 05:31:36;;;;;;;2.47;1.55;;;12.00;99.90;;;;;;5040621;28;20601;-87
2022/07/16 05:34:02;;;;;;;2.72;1.70;;;12.10;99.90;;;;;;5022304;28;20032;-87
2022/07/16 05:36:28;;;;;;;2.25;1.70;;;12.30;99.90;;;;;;5038390;28;20028;-88
2022/07/16 05:38:54;;;;;;;2.70;1.70;;;12.60;99.90;;;;;;5033044;28;20024;-87
2022/07/16 05:41:20;;;;;;;3.15;1.63;;;13.00;99.90;;;;;;5035428;28;20776;-87
2022/07/16 05:43:46;;;;;;;3.15;1.58;;;13.60;99.90;;;;;;5049795;28;20127;-87
2022/07/16 05:46:12;;;;;;;3.05;2.22;;;14.00;99.90;;;;;;5050212;28;20032;-87
2022/07/16 05:48:38;;;;;;;2.83;1.77;;;14.40;99.90;;;;;;5050960;28;20029;-87
2022/07/16 05:51:04;;;;;;;4.47;2.20;;;14.90;99.90;;;;;;5056064;28;20029;-87
2022/07/16 05:53:30;;;;;;;2.00;1.65;;;15.40;99.90;;;;;;5021894;28;20085;-88
2022/07/16 05:55:56;;;;;;;6.53;1.90;;;15.80;99.90;;;;;;5039553;28;20147;-86
2022/07/16 05:58:21;;;;;;;2.75;1.23;;;16.30;99.90;;;;;;5021716;28;20037;-87
2022/07/16 06:00:47;;;;;;;4.68;1.25;;;16.80;99.90;;;;;;5044867;28;20036;-88
2022/07/16 06:03:13;;;;;;;1.50;1.40;;;17.30;99.90;;;;;;5042587;28;20025;-87
2022/07/16 06:05:39;;;;;;;2.03;1.48;;;17.80;99.90;;;;;;5039352;28;20649;-87
2022/07/16 06:08:05;;;;;;;2.90;1.20;;;18.20;99.90;;;;;;5008896;28;20088;-87
2022/07/16 06:10:31;;;;;;;2.78;1.35;;;18.70;99.90;;;;;;5057345;28;20029;-85
2022/07/16 06:12:57;;;;;;;1.77;1.40;;;19.10;98.50;;;;;;5037779;28;20024;-85
2022/07/16 06:15:23;;;;;;;5.45;1.60;;;19.40;97.50;;;;;;5029402;28;20090;-85
2022/07/16 06:17:49;;;;;;;1.75;1.38;;;19.80;95.60;;;;;;5054056;28;20032;-85
2022/07/16 06:20:15;;;;;;;3.42;1.60;;;20.10;95.20;;;;;;5028577;28;20092;-85
2022/07/16 06:22:40;;;;;;;2.45;1.25;;;20.40;92.40;;;;;;5066694;28;20071;-86
2022/07/16 06:25:07;;;;;;;2.38;1.20;;;20.80;92.20;;;;;;5056940;28;20033;-86
2022/07/16 06:27:32;;;;;;;1.48;1.38;;;21.30;90.00;;;;;;5061355;28;20043;-88
2022/07/16 06:30:03;;;;;;;1.73;1.10;;;21.70;87.00;;;;;;5056960;28;20036;-87
2022/07/16 06:32:29;;;;;;;1.23;0.98;;;22.10;85.90;;;;;;5035869;28;20566;-86
2022/07/16 06:34:55;;;;;;;1.23;0.90;;;22.50;82.70;;;;;;5024925;28;20055;-85
2022/07/16 06:37:20;;;;;;;1.00;0.95;;;23.00;75.30;;;;;;5041434;28;20066;-86
2022/07/16 06:39:46;;;;;;;4.28;1.38;;;23.20;75.80;;;;;;5037745;28;20036;-88
2022/07/16 06:42:12;;;;;;;2.50;1.02;;;23.60;71.50;;;;;;5055521;28;20036;-85
2022/07/16 06:44:40;;;;;;;1.73;1.00;;;23.90;71.00;;;;;;5008801;28;20029;-86
2022/07/16 06:47:06;;;;;;;0.90;0.80;;;24.10;68.60;;;;;;5053346;28;20022;-85
2022/07/16 06:49:32;;;;;;;1.80;1.38;;;24.20;67.20;;;;;;5040416;28;20135;-86
2022/07/16 06:51:58;;;;;;;2.05;0.98;;;24.60;65.10;;;;;;5034748;28;20032;-86
2022/07/16 06:54:24;;;;;;;1.23;0.77;;;24.70;63.80;;;;;;5024336;28;20708;-87
2022/07/16 06:56:49;;;;;;;3.05;0.98;;;25.00;61.30;;;;;;5023712;28;20061;-87
2022/07/16 06:59:15;;;;;;;2.45;0.90;;;24.80;57.70;;;;;;5038839;28;20507;-87
2022/07/16 07:01:41;;;;;;;3.55;1.05;;;25.10;59.20;;;;;;5037814;28;20499;-87
2022/07/16 07:04:07;;;;;;;3.10;0.80;;;25.50;58.80;;;;;;5036487;28;20840;-86
2022/07/16 07:06:32;;;;;;;1.88;1.10;;;25.60;56.10;;;;;;5027134;28;20043;-86
2022/07/16 07:08:58;;;;;;;1.75;0.95;;;25.70;56.80;;;;;;5042083;28;20263;-87
2022/07/16 07:11:24;;;;;;;1.92;0.90;;;25.60;58.10;;;;;;5036970;28;20057;-87
2022/07/16 07:13:50;;;;;;;2.05;0.80;;;25.80;55.70;;;;;;5022167;28;20078;-88
2022/07/16 07:16:16;;;;;;;1.23;0.80;;;25.40;57.40;;;;;;5039854;28;20028;-88
2022/07/16 07:18:42;;;;;;;1.45;0.52;;;25.30;57.70;;;;;;5051892;28;20048;-89
2022/07/16 07:21:08;;;;;;;2.50;0.90;;;25.00;56.40;;;;;;5017426;28;20049;-90
2022/07/16 07:23:34;;;;;;;3.55;0.90;;;24.50;59.90;;;;;;5017010;28;20052;-89
2022/07/16 07:26:00;;;;;;;3.13;0.82;;;24.30;61.40;;;;;;5056467;28;20028;-90
2022/07/16 07:28:28;;;;;;;1.42;0.80;;;24.00;59.00;;;;;;5036242;28;20040;-89
2022/07/16 07:30:56;;;;;;;4.88;0.70;;;23.80;58.60;;;;;;5070713;28;20032;-88
2022/07/16 07:33:23;;;;;;;1.58;0.90;;;23.60;59.50;;;;;;5036747;28;20071;-87
2022/07/16 07:35:49;;;;;;;1.55;0.60;;;23.40;59.20;;;;;;5052501;28;20028;-89
2022/07/16 07:38:15;;;;;;;1.55;0.63;;;23.30;61.40;;;;;;5052776;28;20070;-86
2022/07/16 07:40:41;;;;;;;1.85;0.55;;;23.50;61.40;;;;;;5019469;28;20424;-88
2022/07/16 07:43:06;;;;;;;1.88;0.60;;;23.70;62.00;;;;;;5020037;28;20113;-88
2022/07/16 07:45:32;;;;;;;0.70;0.55;;;23.60;63.10;;;;;;5036287;28;20028;-87
2022/07/16 07:48:01;;;;;;;3.10;0.80;;;23.60;62.10;;;;;;5036657;28;20438;-88
2022/07/16 07:50:27;;;;;;;0.80;0.70;;;23.50;63.30;;;;;;5036600;28;20035;-87
2022/07/16 07:52:53;;;;;;;1.85;0.63;;;23.50;61.30;;;;;;5007396;28;20040;-87
2022/07/16 07:55:20;;;;;;;0.80;0.70;;;23.90;61.00;;;;;;5036476;28;20044;-88
2022/07/16 07:57:46;;;;;;;0.80;0.65;;;23.90;61.00;;;;;;5068031;28;20032;-86
2022/07/16 08:00:12;;;;;;;2.70;0.90;;;23.90;61.70;;;;;;5056354;28;20135;-88
2022/07/16 08:02:45;;;;;;;3.28;1.15;;;23.80;58.70;;;;;;5057084;28;20098;-87
2022/07/16 08:05:11;;;;;;;2.97;1.05;;;23.80;59.90;;;;;;5056251;28;20035;-86
2022/07/16 08:07:37;;;;;;;0.68;0.60;;;23.40;57.20;;;;;;5036219;28;20029;-87
2022/07/16 08:10:04;;;;;;;1.35;0.50;;;23.30;59.70;;;;;;5032808;28;20043;-87
2022/07/16 08:12:30;;;;;;;1.52;0.70;;;23.10;64.30;;;;;;5055487;28;20290;-88
2022/07/16 08:14:55;;;;;;;2.30;0.70;;;23.20;65.70;;;;;;5039413;28;20139;-87
2022/07/16 08:17:21;;;;;;;4.18;0.82;;;23.10;67.10;;;;;;5044161;28;20036;-86
2022/07/16 08:19:47;;;;;;;1.70;0.60;;;23.00;63.40;;;;;;5040081;28;20036;-88
2022/07/16 08:22:12;;;;;;;3.30;0.90;;;22.90;63.20;;;;;;5052549;28;20055;-88
2022/07/16 08:27:22;;;;;;;2.20;0.80;;;22.90;62.40;;;;;;5034706;28;20082;-88
2022/07/16 08:29:50;;;;;;;1.88;0.82;;;22.80;60.20;;;;;;5056067;28;20589;-88
2022/07/16 08:32:17;;;;;;;2.58;0.75;;;22.90;64.70;;;;;;5023373;28;20128;-88
2022/07/16 08:34:42;;;;;;;2.90;1.15;;;22.90;65.40;;;;;;5035308;28;20043;-87
2022/07/16 08:37:10;;;;;;;2.22;1.02;;;23.00;62.90;;;;;;5023496;28;20116;-88
2022/07/16 08:39:44;;;;;;;3.53;1.00;;;23.10;63.10;;;;;;5020025;28;20511;-87
2022/07/16 08:42:12;;;;;;;2.88;0.85;;;23.00;65.20;;;;;;5065472;28;20040;-87
2022/07/16 08:44:41;;;;;;;1.83;0.68;;;23.00;62.10;;;;;;5027721;28;20543;-86
2022/07/16 08:47:10;;;;;;;1.25;0.70;;;23.10;62.20;;;;;;5048750;28;20056;-88
2022/07/16 08:49:39;;;;;;;1.75;0.80;;;22.90;63.20;;;;;;5022195;28;20463;-88
2022/07/16 08:52:07;;;;;;;0.82;0.82;;;22.80;62.00;;;;;;5051221;28;20025;-88
2022/07/16 08:54:34;;;;;;;1.80;0.85;;;22.80;61.10;;;;;;5055489;28;20033;-88
2022/07/16 08:57:00;;;;;;;3.40;0.80;;;22.80;63.30;;;;;;5055273;28;20033;-87
2022/07/16 08:59:27;;;;;;;0.77;0.77;;;22.80;61.80;;;;;;5039136;28;20037;-86
2022/07/16 09:01:53;;;;;;;0.95;0.70;;;22.90;57.60;;;;;;5052614;28;20569;-88
2022/07/16 09:04:19;;;;;;;2.42;0.70;;;23.00;60.10;;;;;;5052491;28;20029;-89
2022/07/16 09:06:46;;;;;;;0.73;0.60;;;23.10;59.10;;;;;;5035514;28;20400;-88
2022/07/16 09:09:12;;;;;;;2.88;0.85;;;22.90;61.20;;;;;;5049802;28;20035;-90
2022/07/16 09:11:39;;;;;;;2.78;0.90;;;22.80;62.50;;;;;;5055379;28;20054;-88
2022/07/16 09:14:10;;;;;;;2.58;0.90;;;22.70;63.50;;;;;;5055218;28;20024;-87
2022/07/16 09:16:47;;;;;;;1.75;0.93;;;22.70;59.70;;;;;;5055375;28;20028;-89
2022/07/16 09:19:18;;;;;;;3.15;0.90;;;22.60;58.60;;;;;;5038665;28;20094;-86
2022/07/16 09:22:10;;;;;;;2.58;0.90;;;22.50;64.60;;;;;;5055679;28;20064;-88
2022/07/16 09:24:40;;;;;;;0.70;0.70;;;22.30;61.30;;;;;;5036355;28;20040;-87
2022/07/16 09:27:14;;;;;;;0.77;0.73;;;22.30;64.20;;;;;;5018805;28;20163;-89
2022/07/16 09:30:03;;;;;;;1.13;0.60;;;22.30;68.20;;;;;;5025899;28;20036;-87
2022/07/16 09:32:39;;;;;;;2.40;0.93;;;22.40;65.70;;;;;;5053958;28;20123;-89
2022/07/16 09:35:11;;;;;;;2.38;1.10;;;22.60;67.20;;;;;;5058633;28;20039;-89
2022/07/16 09:37:58;;;;;;;1.77;0.80;;;22.70;57.00;;;;;;5035952;28;20438;-88
2022/07/16 09:40:40;;;;;;;2.63;0.80;;;22.70;64.20;;;;;;5025653;28;20032;-87
2022/07/16 09:43:12;;;;;;;1.95;0.98;;;22.60;62.90;;;;;;5049943;28;20033;-88
2022/07/16 09:45:43;;;;;;;3.15;0.85;;;22.40;65.10;;;;;;5070260;28;20024;-88
2022/07/16 09:48:23;;;;;;;1.10;0.80;;;22.30;69.80;;;;;;5048999;28;20941;-90
2022/07/16 09:50:51;;;;;;;1.77;1.00;;;22.30;67.00;;;;;;5053118;28;20501;-88
2022/07/16 09:53:19;;;;;;;1.27;1.10;;;22.30;59.40;;;;;;5036206;28;20025;-90
2022/07/16 09:56:00;;;;;;;1.48;0.80;;;22.30;65.10;;;;;;5034213;28;20037;-89
2022/07/16 09:58:27;;;;;;;2.70;1.73;;;22.30;65.50;;;;;;5033937;28;20702;-89
2022/07/16 10:00:53;;;;;;;2.35;1.33;;;22.40;65.70;;;;;;5039962;28;20101;-88
2022/07/16 10:03:20;;;;;;;1.88;1.00;;;22.40;64.00;;;;;;5038205;28;20398;-88
2022/07/16 10:05:46;;;;;;;1.35;0.80;;;22.50;63.40;;;;;;5054236;28;20024;-88
2022/07/16 10:08:13;;;;;;;1.10;0.90;;;22.50;66.10;;;;;;5053859;28;20257;-89
2022/07/16 10:10:39;;;;;;;3.42;1.25;;;22.60;65.00;;;;;;5051497;28;20475;-89
2022/07/16 10:13:08;;;;;;;1.60;0.82;;;22.70;62.50;;;;;;5036916;28;20116;-87
2022/07/16 10:15:34;;;;;;;3.42;0.90;;;22.90;63.50;;;;;;5036725;28;20518;-90
2022/07/16 10:18:00;;;;;;;0.93;0.70;;;23.00;60.60;;;;;;5018166;28;20028;-88
2022/07/16 10:20:26;;;;;;;1.83;1.00;;;23.10;61.30;;;;;;5035648;28;20036;-88
2022/07/16 10:22:52;;;;;;;1.85;0.70;;;23.10;61.40;;;;;;5018701;28;20044;-89
2022/07/16 10:25:24;;;;;;;0.95;0.60;;;23.00;61.80;;;;;;5034830;28;20089;-88
2022/07/16 10:27:51;;;;;;;0.65;0.65;;;22.80;62.70;;;;;;5021243;28;20037;-87
2022/07/16 10:30:31;;;;;;;1.42;0.88;;;22.70;60.00;;;;;;5023208;28;20127;-87
2022/07/16 10:33:02;;;;;;;1.35;0.73;;;22.40;64.40;;;;;;5053066;28;20025;-88
2022/07/16 10:35:43;;;;;;;2.70;1.00;;;22.20;67.30;;;;;;5036172;28;20036;-88
2022/07/16 10:38:15;;;;;;;1.23;0.80;;;22.00;65.10;;;;;;5071220;28;20036;-88
2022/07/16 10:40:43;;;;;;;1.38;1.02;;;21.80;67.20;;;;;;5052859;28;20029;-87
2022/07/16 10:43:09;;;;;;;0.93;0.90;;;21.70;68.20;;;;;;5053421;28;20111;-88
2022/07/16 10:45:54;;;;;;;0.75;0.70;;;21.80;71.90;;;;;;5070997;28;20165;-89
2022/07/16 10:48:49;;;;;;;1.10;0.70;;;21.80;69.50;;;;;;5053153;28;20078;-87
2022/07/16 10:51:21;;;;;;;3.13;0.90;;;21.80;69.80;;;;;;5027001;28;20056;-89
2022/07/16 10:54:02;;;;;;;1.85;0.98;;;21.90;69.00;;;;;;5052667;28;20037;-88
2022/07/16 10:56:38;;;;;;;0.80;0.80;;;22.10;67.70;;;;;;5034959;28;20032;-88
2022/07/16 10:59:07;;;;;;;2.70;0.80;;;22.20;69.10;;;;;;5045770;28;20033;-89
2022/07/16 11:01:35;;;;;;;1.98;1.00;;;22.40;69.00;;;;;;5020286;28;20029;-89
2022/07/16 11:04:02;;;;;;;1.77;0.82;;;22.50;68.70;;;;;;5032538;28;20029;-86
2022/07/16 11:06:29;;;;;;;1.40;0.68;;;22.60;69.20;;;;;;5049255;28;20036;-87
2022/07/16 11:08:59;;;;;;;0.73;0.73;;;22.70;68.00;;;;;;5035313;28;20067;-88
2022/07/16 11:11:39;;;;;;;3.17;0.70;;;22.80;65.70;;;;;;5052431;28;20028;-86
2022/07/16 11:14:07;;;;;;;1.30;0.90;;;22.80;66.10;;;;;;5021536;28;20045;-88
2022/07/16 11:16:33;;;;;;;1.40;0.90;;;22.70;66.10;;;;;;5036209;28;20041;-87
2022/07/16 11:19:00;;;;;;;1.00;0.75;;;22.60;64.40;;;;;;5052477;28;20047;-89
2022/07/16 11:21:27;;;;;;;2.83;0.73;;;22.50;63.90;;;;;;5034886;28;20479;-88
2022/07/16 11:23:58;;;;;;;2.53;0.98;;;22.40;65.40;;;;;;5035819;28;20044;-88
2022/07/16 11:26:24;;;;;;;0.90;0.80;;;22.40;67.70;;;;;;5032584;28;20264;-87
2022/07/16 11:28:51;;;;;;;1.15;0.95;;;22.30;66.10;;;;;;5015883;28;20056;-86
2022/07/16 11:31:27;;;;;;;1.15;1.00;;;22.40;68.10;;;;;;5049614;28;20050;-88
2022/07/16 11:33:56;;;;;;;3.33;0.90;;;22.60;69.20;;;;;;5068074;28;20029;-87
2022/07/16 11:36:26;;;;;;;2.75;1.00;;;22.80;70.30;;;;;;5036799;28;20032;-86
2022/07/16 11:38:57;;;;;;;2.17;1.00;;;22.90;65.70;;;;;;5052558;28;20020;-86
2022/07/16 11:41:23;;;;;;;3.35;1.27;;;23.00;68.70;;;;;;5052453;28;20483;-90
2022/07/16 11:43:48;;;;;;;1.58;1.10;;;23.20;69.90;;;;;;5052541;28;20040;-90
2022/07/16 11:46:28;;;;;;;1.02;0.90;;;23.40;67.20;;;;;;5050689;28;20070;-85
2022/07/16 11:48:55;;;;;;;1.88;0.90;;;23.50;67.30;;;;;;5051320;28;20729;-88
2022/07/16 11:51:21;;;;;;;2.67;0.98;;;23.70;65.30;;;;;;5037735;28;20091;-87
2022/07/16 11:53:55;;;;;;;1.58;0.98;;;23.70;64.60;;;;;;5050111;28;20027;-88
2022/07/16 11:56:38;;;;;;;1.30;1.20;;;23.60;64.70;;;;;;5035844;28;20109;-88
2022/07/16 11:59:19;;;;;;;0.93;0.80;;;23.70;66.50;;;;;;5040083;28;20029;-88
2022/07/16 12:01:46;;;;;;;4.40;1.45;;;23.70;65.80;;;;;;5035931;28;20039;-86
2022/07/16 12:04:13;;;;;;;1.15;0.80;;;23.70;63.10;;;;;;5037004;28;20119;-88
2022/07/16 12:06:45;;;;;;;1.60;0.80;;;23.60;63.40;;;;;;5057490;28;20105;-86
2022/07/16 12:09:11;;;;;;;3.10;1.20;;;23.60;64.60;;;;;;5055374;28;20138;-86
2022/07/16 12:11:37;;;;;;;2.80;0.98;;;23.60;64.20;;;;;;5060082;28;20106;-86
2022/07/16 12:14:03;;;;;;;2.70;1.25;;;23.70;62.30;;;;;;5053710;28;20483;-88
2022/07/16 12:16:31;;;;;;;1.02;0.90;;;23.80;63.10;;;;;;5044331;28;20127;-86
2022/07/16 12:19:16;;;;;;;1.33;0.98;;;24.00;65.30;;;;;;5035471;28;20048;-86
2022/07/16 12:21:42;;;;;;;1.50;1.02;;;24.30;62.60;;;;;;5059705;28;20029;-88
2022/07/16 12:24:09;;;;;;;3.00;0.90;;;24.70;65.10;;;;;;5038050;28;20494;-87
2022/07/16 12:26:37;;;;;;;2.05;1.23;;;24.70;59.90;;;;;;5043287;28;20036;-88
2022/07/16 12:29:05;;;;;;;2.00;1.27;;;24.70;61.40;;;;;;5035561;28;20037;-87
2022/07/16 12:31:32;;;;;;;1.33;1.10;;;24.70;62.70;;;;;;5035254;28;20037;-88
2022/07/16 12:34:00;;;;;;;2.55;0.95;;;24.60;60.20;;;;;;5050620;28;20048;-88
2022/07/16 12:36:31;;;;;;;1.65;0.93;;;24.60;62.20;;;;;;5068612;28;20079;-87
2022/07/16 12:39:05;;;;;;;2.05;1.30;;;24.70;61.50;;;;;;5035000;28;20398;-88
2022/07/16 12:41:41;;;;;;;1.48;0.98;;;24.70;63.30;;;;;;5044080;28;20498;-88
2022/07/16 12:44:14;;;;;;;2.38;1.20;;;24.90;62.70;;;;;;5023606;28;20451;-87
2022/07/16 12:46:51;;;;;;;1.50;0.95;;;25.10;60.30;;;;;;5037741;28;20029;-87
2022/07/16 12:49:20;;;;;;;1.52;1.00;;;25.40;60.50;;;;;;5055177;28;20036;-87
2022/07/16 12:51:53;;;;;;;1.45;1.08;;;25.70;58.10;;;;;;5055154;28;20028;-88
2022/07/16 12:54:22;;;;;;;0.98;0.80;;;26.00;59.40;;;;;;5044452;28;20043;-88
2022/07/16 12:59:33;;;;;;;1.55;1.30;;;26.30;55.60;;;;;;5053342;28;20070;-87
2022/07/16 13:02:00;;;;;;;1.02;0.90;;;26.00;55.10;;;;;;5053558;28;20021;-87
2022/07/16 13:04:26;;;;;;;2.63;1.02;;;25.70;55.70;;;;;;5058450;28;20033;-89